APX12N EGJJ-EGHQ
Flight info
| Callsign | APX12N |
|---|---|
| Flight time | 0h 35m |
| Altitude | 22000 |
| Route | SKERY |
| Aircraft | C25B/M-SDE2E3FGHRWXY/LB1 |
Departure
| Time | 2026-04-21 18:21 |
|---|---|
| Airport | Jersey Airport (EGJJ) |
Arrival
| Time | 2026-04-21 18:57 |
|---|---|
| Airport | Cornwall Airport Newquay (EGHQ) |
| Time | Latitude | Longitude | Altitude | Speed | Heading |
|---|---|---|---|---|---|
| 2026-04-21 18:04 | 49.20452 | -2.19084 | 282 ft | 0 kts | 168° |
| 2026-04-21 18:17 | 49.20446 | -2.19088 | 281 ft | 3 kts | 239° |
| 2026-04-21 18:17 | 49.20427 | -2.19175 | 281 ft | 14 kts | 245° |
| 2026-04-21 18:18 | 49.20400 | -2.19341 | 280 ft | 19 kts | 264° |
| 2026-04-21 18:18 | 49.20423 | -2.19540 | 280 ft | 20 kts | 285° |
| 2026-04-21 18:18 | 49.20441 | -2.19748 | 279 ft | 20 kts | 263° |
| 2026-04-21 18:18 | 49.20460 | -2.19911 | 280 ft | 13 kts | 351° |
| 2026-04-21 18:19 | 49.20520 | -2.20000 | 281 ft | 15 kts | 287° |
| 2026-04-21 18:19 | 49.20553 | -2.20165 | 283 ft | 17 kts | 287° |
| 2026-04-21 18:19 | 49.20590 | -2.20358 | 283 ft | 22 kts | 281° |
| 2026-04-21 18:19 | 49.20611 | -2.20458 | 283 ft | 0 kts | 288° |
| 2026-04-21 18:20 | 49.20619 | -2.20504 | 283 ft | 12 kts | 283° |
| 2026-04-21 18:20 | 49.20641 | -2.20686 | 284 ft | 16 kts | 321° |
| 2026-04-21 18:21 | 49.20710 | -2.20596 | 280 ft | 20 kts | 83° |
| 2026-04-21 18:21 | 49.20770 | -2.19921 | 290 ft | 120 kts | 80° |
| 2026-04-21 18:21 | 49.20926 | -2.18335 | 1151 ft | 172 kts | 80° |
| 2026-04-21 18:21 | 49.21133 | -2.16543 | 2545 ft | 175 kts | 81° |
| 2026-04-21 18:22 | 49.21628 | -2.14785 | 3673 ft | 187 kts | 62° |
| 2026-04-21 18:22 | 49.22480 | -2.13190 | 4754 ft | 205 kts | 46° |
| 2026-04-21 18:22 | 49.23778 | -2.12006 | 4992 ft | 225 kts | 25° |
| 2026-04-21 18:22 | 49.25346 | -2.11625 | 4993 ft | 233 kts | 5° |
| 2026-04-21 18:23 | 49.26957 | -2.12169 | 4992 ft | 244 kts | 342° |
| 2026-04-21 18:23 | 49.28374 | -2.13680 | 5043 ft | 261 kts | 321° |
| 2026-04-21 18:23 | 49.29777 | -2.15679 | 5548 ft | 284 kts | 321° |
| 2026-04-21 18:23 | 49.31218 | -2.17726 | 6713 ft | 281 kts | 320° |
| 2026-04-21 18:24 | 49.32562 | -2.19678 | 7639 ft | 283 kts | 319° |
| 2026-04-21 18:24 | 49.34038 | -2.21764 | 8642 ft | 284 kts | 320° |
| 2026-04-21 18:24 | 49.35491 | -2.23825 | 9633 ft | 285 kts | 319° |
| 2026-04-21 18:24 | 49.36923 | -2.25887 | 10517 ft | 287 kts | 318° |
| 2026-04-21 18:25 | 49.38391 | -2.27973 | 11385 ft | 288 kts | 317° |
| 2026-04-21 18:25 | 49.39858 | -2.30071 | 12226 ft | 290 kts | 317° |
| 2026-04-21 18:25 | 49.41339 | -2.32178 | 13075 ft | 291 kts | 316° |
| 2026-04-21 18:25 | 49.42821 | -2.34313 | 13918 ft | 293 kts | 316° |
| 2026-04-21 18:26 | 49.44317 | -2.36452 | 14663 ft | 294 kts | 316° |
| 2026-04-21 18:26 | 49.45814 | -2.38592 | 15403 ft | 295 kts | 316° |
| 2026-04-21 18:26 | 49.47322 | -2.40753 | 16160 ft | 296 kts | 316° |
| 2026-04-21 18:26 | 49.48828 | -2.42918 | 16909 ft | 298 kts | 316° |
| 2026-04-21 18:27 | 49.50353 | -2.45100 | 17611 ft | 300 kts | 316° |
| 2026-04-21 18:27 | 49.51888 | -2.47294 | 18315 ft | 303 kts | 316° |
| 2026-04-21 18:27 | 49.53434 | -2.49523 | 18939 ft | 305 kts | 315° |
| 2026-04-21 18:27 | 49.54998 | -2.51761 | 19545 ft | 308 kts | 316° |
| 2026-04-21 18:28 | 49.56567 | -2.54020 | 20158 ft | 310 kts | 315° |
| 2026-04-21 18:28 | 49.58147 | -2.56288 | 20777 ft | 312 kts | 315° |
| 2026-04-21 18:28 | 49.59740 | -2.58588 | 21374 ft | 315 kts | 315° |
| 2026-04-21 18:28 | 49.61347 | -2.60903 | 21999 ft | 317 kts | 315° |
| 2026-04-21 18:29 | 49.62966 | -2.63243 | 22138 ft | 319 kts | 315° |
| 2026-04-21 18:29 | 49.64579 | -2.65564 | 22140 ft | 316 kts | 315° |
| 2026-04-21 18:29 | 49.66173 | -2.67874 | 22140 ft | 313 kts | 315° |
| 2026-04-21 18:29 | 49.67757 | -2.70166 | 22141 ft | 311 kts | 315° |
| 2026-04-21 18:30 | 49.69310 | -2.72418 | 22144 ft | 309 kts | 315° |
| 2026-04-21 18:30 | 49.70875 | -2.74684 | 22148 ft | 308 kts | 315° |
| 2026-04-21 18:30 | 49.72432 | -2.76947 | 22149 ft | 306 kts | 315° |
| 2026-04-21 18:30 | 49.73983 | -2.79197 | 22154 ft | 305 kts | 315° |
| 2026-04-21 18:31 | 49.75528 | -2.81445 | 22156 ft | 304 kts | 315° |
| 2026-04-21 18:31 | 49.77067 | -2.83684 | 22157 ft | 304 kts | 315° |
| 2026-04-21 18:31 | 49.78604 | -2.85923 | 22159 ft | 303 kts | 315° |
| 2026-04-21 18:31 | 49.80136 | -2.88157 | 22159 ft | 302 kts | 315° |
| 2026-04-21 18:32 | 49.81667 | -2.90393 | 22162 ft | 302 kts | 315° |
| 2026-04-21 18:32 | 49.83195 | -2.92622 | 22159 ft | 302 kts | 314° |
| 2026-04-21 18:32 | 49.84720 | -2.94851 | 22163 ft | 301 kts | 315° |
| 2026-04-21 18:32 | 49.86241 | -2.97079 | 22164 ft | 301 kts | 315° |
| 2026-04-21 18:33 | 49.87766 | -2.99310 | 22159 ft | 301 kts | 315° |
| 2026-04-21 18:33 | 49.89287 | -3.01542 | 22168 ft | 301 kts | 314° |
| 2026-04-21 18:33 | 49.90807 | -3.03773 | 22165 ft | 301 kts | 315° |
| 2026-04-21 18:33 | 49.92325 | -3.06001 | 22168 ft | 301 kts | 315° |
| 2026-04-21 18:34 | 49.93845 | -3.08234 | 22159 ft | 301 kts | 314° |
| 2026-04-21 18:34 | 49.95364 | -3.10470 | 22171 ft | 301 kts | 314° |
| 2026-04-21 18:34 | 49.96884 | -3.12709 | 22172 ft | 301 kts | 314° |
| 2026-04-21 18:34 | 49.98399 | -3.14946 | 22172 ft | 300 kts | 314° |
| 2026-04-21 18:35 | 49.99311 | -3.16548 | 22161 ft | 299 kts | 306° |
| 2026-04-21 18:35 | 50.00734 | -3.20237 | 22175 ft | 298 kts | 294° |
| 2026-04-21 18:35 | 50.01478 | -3.23241 | 22178 ft | 298 kts | 291° |
| 2026-04-21 18:35 | 50.02255 | -3.26230 | 22176 ft | 298 kts | 292° |
| 2026-04-21 18:36 | 50.03013 | -3.29233 | 22177 ft | 298 kts | 291° |
| 2026-04-21 18:36 | 50.03756 | -3.32198 | 22180 ft | 298 kts | 291° |
| 2026-04-21 18:36 | 50.04506 | -3.35209 | 22180 ft | 299 kts | 291° |
| 2026-04-21 18:36 | 50.05265 | -3.38221 | 22178 ft | 299 kts | 291° |
| 2026-04-21 18:37 | 50.06017 | -3.41233 | 22183 ft | 299 kts | 291° |
| 2026-04-21 18:37 | 50.06773 | -3.44249 | 22182 ft | 299 kts | 291° |
| 2026-04-21 18:37 | 50.07525 | -3.47269 | 22181 ft | 299 kts | 291° |
| 2026-04-21 18:37 | 50.08279 | -3.50289 | 22180 ft | 300 kts | 291° |
| 2026-04-21 18:38 | 50.09031 | -3.53314 | 22179 ft | 300 kts | 291° |
| 2026-04-21 18:38 | 50.09785 | -3.56338 | 22183 ft | 300 kts | 291° |
| 2026-04-21 18:38 | 50.10535 | -3.59368 | 22185 ft | 300 kts | 291° |
| 2026-04-21 18:38 | 50.11288 | -3.62400 | 22184 ft | 300 kts | 291° |
| 2026-04-21 18:39 | 50.12040 | -3.65438 | 22182 ft | 300 kts | 291° |
| 2026-04-21 18:39 | 50.12790 | -3.68472 | 22183 ft | 300 kts | 291° |
| 2026-04-21 18:39 | 50.13541 | -3.71514 | 22183 ft | 300 kts | 291° |
| 2026-04-21 18:39 | 50.14290 | -3.74552 | 22181 ft | 301 kts | 290° |
| 2026-04-21 18:40 | 50.15039 | -3.77597 | 22181 ft | 301 kts | 291° |
| 2026-04-21 18:40 | 50.15788 | -3.80644 | 22180 ft | 301 kts | 290° |
| 2026-04-21 18:40 | 50.16283 | -3.82661 | 22180 ft | 301 kts | 291° |
| 2026-04-21 18:40 | 50.17283 | -3.86741 | 22177 ft | 301 kts | 290° |
| 2026-04-21 18:41 | 50.18032 | -3.89788 | 22176 ft | 301 kts | 291° |
| 2026-04-21 18:41 | 50.18778 | -3.92845 | 22177 ft | 301 kts | 290° |
| 2026-04-21 18:41 | 50.19526 | -3.95901 | 22177 ft | 302 kts | 290° |
| 2026-04-21 18:41 | 50.20261 | -3.98918 | 22178 ft | 302 kts | 290° |
| 2026-04-21 18:42 | 50.21005 | -4.01978 | 22178 ft | 302 kts | 290° |
| 2026-04-21 18:42 | 50.21758 | -4.05065 | 21896 ft | 309 kts | 290° |
| 2026-04-21 18:42 | 50.22522 | -4.08219 | 21384 ft | 311 kts | 291° |
| 2026-04-21 18:42 | 50.23289 | -4.11379 | 20886 ft | 312 kts | 290° |
| 2026-04-21 18:43 | 50.24058 | -4.14557 | 20385 ft | 313 kts | 290° |
| 2026-04-21 18:43 | 50.24828 | -4.17742 | 19906 ft | 314 kts | 290° |
| 2026-04-21 18:43 | 50.25600 | -4.20934 | 19430 ft | 314 kts | 290° |
| 2026-04-21 18:43 | 50.26371 | -4.24136 | 18958 ft | 315 kts | 290° |
| 2026-04-21 18:44 | 50.27145 | -4.27351 | 18489 ft | 316 kts | 290° |
| 2026-04-21 18:44 | 50.27922 | -4.30574 | 17961 ft | 317 kts | 290° |
| 2026-04-21 18:44 | 50.28696 | -4.33807 | 17439 ft | 318 kts | 290° |
| 2026-04-21 18:44 | 50.29472 | -4.37047 | 16918 ft | 319 kts | 290° |
| 2026-04-21 18:45 | 50.30254 | -4.40302 | 16404 ft | 320 kts | 290° |
| 2026-04-21 18:45 | 50.31020 | -4.43523 | 15910 ft | 321 kts | 290° |
| 2026-04-21 18:45 | 50.31803 | -4.46798 | 15418 ft | 321 kts | 290° |
| 2026-04-21 18:45 | 50.32581 | -4.50061 | 14885 ft | 320 kts | 290° |
| 2026-04-21 18:46 | 50.33359 | -4.53336 | 14287 ft | 322 kts | 290° |
| 2026-04-21 18:46 | 50.34140 | -4.56623 | 13664 ft | 323 kts | 290° |
| 2026-04-21 18:46 | 50.34922 | -4.59927 | 13001 ft | 324 kts | 290° |
| 2026-04-21 18:46 | 50.35712 | -4.63244 | 12358 ft | 325 kts | 290° |
| 2026-04-21 18:47 | 50.36494 | -4.66569 | 11731 ft | 326 kts | 290° |
| 2026-04-21 18:47 | 50.37284 | -4.69907 | 11111 ft | 327 kts | 290° |
| 2026-04-21 18:47 | 50.38073 | -4.73252 | 10475 ft | 325 kts | 290° |
| 2026-04-21 18:47 | 50.38844 | -4.76539 | 9727 ft | 319 kts | 291° |
| 2026-04-21 18:48 | 50.39605 | -4.79777 | 8936 ft | 314 kts | 291° |
| 2026-04-21 18:48 | 50.40355 | -4.82965 | 8168 ft | 310 kts | 291° |
| 2026-04-21 18:48 | 50.41095 | -4.86123 | 7416 ft | 307 kts | 291° |
| 2026-04-21 18:48 | 50.41828 | -4.89250 | 6686 ft | 304 kts | 291° |
| 2026-04-21 18:49 | 50.42543 | -4.92319 | 6149 ft | 295 kts | 291° |
| 2026-04-21 18:49 | 50.43235 | -4.95299 | 5620 ft | 287 kts | 291° |
| 2026-04-21 18:49 | 50.43690 | -4.97230 | 5286 ft | 283 kts | 292° |
| 2026-04-21 18:49 | 50.44405 | -5.01123 | 4766 ft | 272 kts | 276° |
| 2026-04-21 18:50 | 50.44596 | -5.04064 | 4492 ft | 270 kts | 280° |
| 2026-04-21 18:50 | 50.44911 | -5.06970 | 4225 ft | 271 kts | 280° |
| 2026-04-21 18:50 | 50.45175 | -5.09909 | 3945 ft | 273 kts | 278° |
| 2026-04-21 18:50 | 50.45437 | -5.12917 | 3431 ft | 282 kts | 278° |
| 2026-04-21 18:51 | 50.45698 | -5.15953 | 2923 ft | 286 kts | 278° |
| 2026-04-21 18:51 | 50.45970 | -5.18999 | 2606 ft | 277 kts | 278° |
| 2026-04-21 18:51 | 50.46230 | -5.21938 | 2340 ft | 267 kts | 279° |
| 2026-04-21 18:51 | 50.46851 | -5.24583 | 2037 ft | 256 kts | 313° |
| 2026-04-21 18:52 | 50.48239 | -5.26041 | 1984 ft | 231 kts | 348° |
| 2026-04-21 18:52 | 50.49729 | -5.26226 | 1986 ft | 205 kts | 19° |
| 2026-04-21 18:52 | 50.50998 | -5.25402 | 1986 ft | 193 kts | 43° |
| 2026-04-21 18:52 | 50.51864 | -5.23845 | 1991 ft | 189 kts | 64° |
| 2026-04-21 18:53 | 50.52227 | -5.21889 | 1991 ft | 189 kts | 87° |
| 2026-04-21 18:53 | 50.52040 | -5.19860 | 1994 ft | 191 kts | 111° |
| 2026-04-21 18:53 | 50.51182 | -5.18237 | 1996 ft | 194 kts | 127° |
| 2026-04-21 18:53 | 50.50478 | -5.16457 | 1996 ft | 191 kts | 117° |
| 2026-04-21 18:54 | 50.49755 | -5.14709 | 2005 ft | 190 kts | 118° |
| 2026-04-21 18:54 | 50.49112 | -5.12951 | 2004 ft | 177 kts | 116° |
| 2026-04-21 18:54 | 50.48522 | -5.11374 | 1865 ft | 159 kts | 116° |
| 2026-04-21 18:54 | 50.47992 | -5.09947 | 1651 ft | 143 kts | 115° |
| 2026-04-21 18:55 | 50.47675 | -5.09111 | 1518 ft | 127 kts | 117° |
| 2026-04-21 18:55 | 50.47134 | -5.07648 | 1318 ft | 111 kts | 115° |
| 2026-04-21 18:55 | 50.46733 | -5.06633 | 1158 ft | 108 kts | 117° |
| 2026-04-21 18:55 | 50.46364 | -5.05576 | 1008 ft | 112 kts | 116° |
| 2026-04-21 18:56 | 50.45950 | -5.04509 | 859 ft | 116 kts | 119° |
| 2026-04-21 18:56 | 50.45528 | -5.03419 | 659 ft | 120 kts | 117° |
| 2026-04-21 18:56 | 50.45116 | -5.02290 | 517 ft | 118 kts | 117° |
| 2026-04-21 18:56 | 50.44697 | -5.01189 | 359 ft | 117 kts | 118° |
| 2026-04-21 18:57 | 50.44321 | -5.00179 | 336 ft | 90 kts | 118° |
| 2026-04-21 18:57 | 50.44133 | -4.99684 | 339 ft | 25 kts | 121° |
| 2026-04-21 18:57 | 50.44089 | -4.99532 | 347 ft | 7 kts | 68° |
| 2026-04-21 18:57 | 50.44160 | -4.99493 | 344 ft | 12 kts | 3° |
| 2026-04-21 18:58 | 50.44256 | -4.99493 | 351 ft | 16 kts | 329° |
| 2026-04-21 18:58 | 50.44336 | -4.99680 | 348 ft | 25 kts | 301° |
| 2026-04-21 18:58 | 50.44432 | -4.99938 | 338 ft | 29 kts | 301° |
| 2026-04-21 18:58 | 50.44511 | -5.00141 | 334 ft | 12 kts | 320° |
| 2026-04-21 18:59 | 50.44550 | -5.00092 | 337 ft | 0 kts | 115° |